Vidal, California
Current Conditions -  °F | °C
As of 2:35 PM on Friday 31 Oct 2014 (Local Time) from KHII Reporting Station
Clear Clear  
Wind Chill: 90°   Ceiling: Unl
Heat Index: 90°   Visibility: 10mi
Dew Point: 39°   Wind: 13mph
Humidity: 17%   Direction: 170°S
Pressure: 29.75"   Gusts: 21mph
Location:  34.12°N, 114.51°W
Report Text: KHII 312135Z AUTO 17011G18KT 10SM CLR 32/04 A2975 RMK AO2
Loading
Personal Weather Stations






























Interactive Weather Map
Tropical Storm Tracking
New forecast layout! Learn more

10-Day Weather Forecast

Advertisements
Track Severe Weather on mobile